Time;durP1;ratioP1;P1;durP2;ratioP2;P2;SDS_P1;SDS_P2;PMS_P1;PMS_P2;Temp;Humidity;BMP_temperature;BMP_pressure;BME280_temperature;BME280_humidity;BME280_pressure;Samples;Min_cycle;Max_cycle;Signal;HPM_P1;HPM_P2
2023/08/13 00:02:09;;;;;;;13.27;3.43;;;;;;;;;;5054254;28;20096;-62
2023/08/13 00:04:35;;;;;;;10.80;3.33;;;;;;;;;;5048536;28;20475;-62
2023/08/13 00:07:01;;;;;;;15.63;4.90;;;;;;;;;;5060263;28;20503;-62
2023/08/13 00:09:27;;;;;;;14.90;3.60;;;;;;;;;;5068161;28;20041;-62
2023/08/13 00:11:54;;;;;;;11.87;3.10;;;;;;;;;;5068551;28;20045;-62
2023/08/13 00:14:20;;;;;;;15.60;3.27;;;;;;;;;;5068326;28;20084;-62
2023/08/13 00:16:47;;;;;;;15.07;3.50;;;;;;;;;;5068644;28;20062;-62
2023/08/13 00:19:13;;;;;;;9.33;3.10;;;;;;;;;;5052976;28;20605;-62
2023/08/13 00:21:39;;;;;;;15.63;3.20;;;;;;;;;;5048277;28;20037;-62
2023/08/13 00:24:06;;;;;;;12.10;2.90;;;;;;;;;;5048623;28;20087;-62
2023/08/13 00:26:32;;;;;;;19.37;4.30;;;;;;;;;;5047665;28;20041;-62
2023/08/13 00:28:58;;;;;;;11.50;3.60;;;;;;;;;;5048209;28;20094;-62
2023/08/13 00:31:24;;;;;;;11.87;3.47;;;;;;;;;;5048280;28;20049;-62
2023/08/13 00:33:50;;;;;;;13.17;3.37;;;;;;;;;;5048328;28;20049;-62
2023/08/13 00:36:19;;;;;;;17.13;3.67;;;;;;;;;;5048109;28;20045;-62
2023/08/13 00:38:45;;;;;;;13.50;3.37;;;;;;;;;;5047397;28;20121;-62
2023/08/13 00:41:11;;;;;;;14.57;3.40;;;;;;;;;;5048215;28;20522;-62
2023/08/13 00:43:37;;;;;;;17.20;3.80;;;;;;;;;;5048139;28;20526;-62
2023/08/13 00:46:04;;;;;;;15.20;3.60;;;;;;;;;;5048327;28;20494;-62
2023/08/13 00:48:30;;;;;;;17.20;4.27;;;;;;;;;;5047610;28;20563;-62
2023/08/13 00:50:57;;;;;;;16.27;4.13;;;;;;;;;;5047803;28;20490;-62
2023/08/13 00:53:23;;;;;;;17.57;4.17;;;;;;;;;;5048722;28;20059;-62
2023/08/13 00:55:49;;;;;;;14.23;3.63;;;;;;;;;;5048299;28;20056;-62
2023/08/13 00:58:15;;;;;;;15.80;4.13;;;;;;;;;;5048010;28;20056;-62
2023/08/13 01:00:41;;;;;;;14.53;3.87;;;;;;;;;;5057397;28;20106;-62
2023/08/13 01:03:07;;;;;;;17.03;3.93;;;;;;;;;;5070524;28;20079;-62
2023/08/13 01:05:39;;;;;;;18.17;4.43;;;;;;;;;;5072057;28;20106;-62
2023/08/13 01:08:19;;;;;;;18.57;4.03;;;;;;;;;;5071925;28;20045;-62
2023/08/13 01:10:49;;;;;;;16.77;4.27;;;;;;;;;;5052163;28;20051;-62
2023/08/13 01:13:22;;;;;;;13.30;3.90;;;;;;;;;;5052082;28;20406;-61
2023/08/13 01:15:51;;;;;;;18.80;3.88;;;;;;;;;;5051983;28;20037;-62
2023/08/13 01:18:17;;;;;;;16.03;5.20;;;;;;;;;;5051784;28;20045;-61
2023/08/13 01:20:44;;;;;;;15.03;4.50;;;;;;;;;;5050583;28;20049;-62
2023/08/13 01:23:10;;;;;;;17.30;3.90;;;;;;;;;;5051431;28;20096;-62
2023/08/13 01:25:36;;;;;;;18.70;4.43;;;;;;;;;;5052100;28;20049;-62
2023/08/13 01:28:12;;;;;;;18.90;4.97;;;;;;;;;;5051615;28;20394;-61
2023/08/13 01:30:41;;;;;;;18.07;5.03;;;;;;;;;;5050819;28;20407;-62
2023/08/13 01:33:09;;;;;;;16.73;4.27;;;;;;;;;;5051371;28;20347;-62
2023/08/13 01:35:36;;;;;;;16.20;4.53;;;;;;;;;;5051142;28;20052;-62
2023/08/13 01:38:03;;;;;;;13.07;4.00;;;;;;;;;;5051303;28;20138;-62
2023/08/13 01:40:29;;;;;;;25.27;5.93;;;;;;;;;;5051230;28;20033;-62
2023/08/13 01:42:55;;;;;;;19.80;4.33;;;;;;;;;;5051410;28;20041;-62
2023/08/13 01:45:21;;;;;;;15.03;4.53;;;;;;;;;;5051138;28;20041;-62
2023/08/13 01:47:48;;;;;;;19.07;4.93;;;;;;;;;;5051077;28;20048;-62
2023/08/13 01:50:14;;;;;;;18.07;4.67;;;;;;;;;;5051197;28;20052;-62
2023/08/13 01:52:40;;;;;;;22.00;4.67;;;;;;;;;;5050794;28;20403;-61
2023/08/13 01:55:06;;;;;;;16.70;5.30;;;;;;;;;;5050345;28;20128;-62
2023/08/13 01:57:32;;;;;;;23.10;5.70;;;;;;;;;;5051001;28;20446;-62
2023/08/13 01:59:58;;;;;;;18.50;5.63;;;;;;;;;;5055066;28;20348;-62
2023/08/13 02:02:24;;;;;;;21.50;4.93;;;;;;;;;;5070789;28;20502;-62
2023/08/13 02:04:50;;;;;;;21.90;4.90;;;;;;;;;;5070715;28;20059;-62
2023/08/13 02:07:17;;;;;;;21.43;5.30;;;;;;;;;;5070858;28;20041;-62
2023/08/13 02:09:43;;;;;;;14.70;4.57;;;;;;;;;;5070521;28;20043;-62
2023/08/13 02:12:09;;;;;;;17.20;5.50;;;;;;;;;;5069997;28;20502;-62
2023/08/13 02:14:35;;;;;;;19.17;5.80;;;;;;;;;;5069388;28;20051;-62
2023/08/13 02:17:00;;;;;;;19.73;6.00;;;;;;;;;;5065608;28;20060;-62
2023/08/13 02:19:27;;;;;;;16.97;5.23;;;;;;;;;;5048984;28;20222;-62
2023/08/13 02:21:53;;;;;;;19.20;5.20;;;;;;;;;;5050166;28;20415;-62
2023/08/13 02:24:19;;;;;;;21.10;5.27;;;;;;;;;;5050520;28;20064;-62
2023/08/13 02:26:44;;;;;;;21.10;5.30;;;;;;;;;;5050163;28;20045;-62
2023/08/13 02:29:10;;;;;;;19.80;5.60;;;;;;;;;;5050380;28;20411;-62
2023/08/13 02:31:36;;;;;;;15.50;5.17;;;;;;;;;;5050234;28;20128;-62
2023/08/13 02:34:02;;;;;;;22.50;6.27;;;;;;;;;;5050026;28;20041;-62
2023/08/13 02:36:28;;;;;;;25.03;5.27;;;;;;;;;;5050043;28;20040;-62
2023/08/13 02:38:54;;;;;;;19.97;5.83;;;;;;;;;;5050305;28;20045;-62
2023/08/13 02:41:20;;;;;;;26.30;6.27;;;;;;;;;;5049641;28;20396;-62
2023/08/13 02:43:54;;;;;;;18.03;5.70;;;;;;;;;;5050107;28;20395;-62
2023/08/13 02:46:20;;;;;;;24.83;6.77;;;;;;;;;;5049911;28;20171;-62
2023/08/13 02:48:46;;;;;;;16.63;4.77;;;;;;;;;;5049425;28;20045;-62
2023/08/13 02:51:13;;;;;;;21.87;5.57;;;;;;;;;;5050592;28;20049;-62
2023/08/13 02:53:39;;;;;;;16.87;5.07;;;;;;;;;;5049990;28;20048;-62
2023/08/13 02:56:05;;;;;;;19.63;5.40;;;;;;;;;;5050508;28;20482;-62
2023/08/13 02:58:31;;;;;;;21.10;5.03;;;;;;;;;;5049807;28;20059;-62
2023/08/13 03:00:57;;;;;;;17.00;5.43;;;;;;;;;;5061651;28;20052;-62
2023/08/13 03:03:23;;;;;;;19.93;5.00;;;;;;;;;;5069020;28;20517;-62
2023/08/13 03:05:49;;;;;;;14.33;5.20;;;;;;;;;;5069732;28;20041;-62
2023/08/13 03:08:14;;;;;;;18.17;5.73;;;;;;;;;;5063128;28;20052;-62
2023/08/13 03:10:40;;;;;;;20.60;4.87;;;;;;;;;;5049565;28;20561;-62
2023/08/13 03:13:06;;;;;;;19.63;4.70;;;;;;;;;;5049775;28;20052;-61
2023/08/13 03:15:32;;;;;;;19.43;5.80;;;;;;;;;;5048944;28;20099;-62
2023/08/13 03:17:58;;;;;;;17.73;5.53;;;;;;;;;;5049464;28;20499;-62
2023/08/13 03:20:24;;;;;;;18.93;4.60;;;;;;;;;;5049239;28;20041;-62
2023/08/13 03:22:50;;;;;;;27.60;6.63;;;;;;;;;;5049297;28;20055;-62
2023/08/13 03:25:16;;;;;;;21.67;5.67;;;;;;;;;;5048970;28;20032;-62
2023/08/13 03:27:42;;;;;;;22.17;5.77;;;;;;;;;;5049061;28;20048;-62
2023/08/13 03:30:09;;;;;;;16.30;5.13;;;;;;;;;;5049391;28;20053;-62
2023/08/13 03:32:36;;;;;;;17.40;5.20;;;;;;;;;;5048463;28;20055;-62
2023/08/13 03:35:02;;;;;;;20.73;5.60;;;;;;;;;;5053040;28;20032;-62
2023/08/13 03:37:28;;;;;;;19.43;5.90;;;;;;;;;;5068878;28;20044;-61
2023/08/13 03:39:54;;;;;;;18.87;5.80;;;;;;;;;;5068874;28;20491;-62
2023/08/13 03:42:20;;;;;;;19.03;5.87;;;;;;;;;;5061382;28;20045;-62
2023/08/13 03:44:46;;;;;;;16.23;6.10;;;;;;;;;;5048844;28;20044;-62
2023/08/13 03:47:12;;;;;;;21.77;5.97;;;;;;;;;;5048293;28;20430;-62
2023/08/13 03:49:38;;;;;;;17.50;4.87;;;;;;;;;;5048821;28;20457;-62
2023/08/13 03:52:04;;;;;;;15.00;4.73;;;;;;;;;;5047921;28;20052;-62
2023/08/13 03:54:30;;;;;;;17.33;5.87;;;;;;;;;;5048188;28;20765;-62
2023/08/13 03:56:56;;;;;;;18.47;5.93;;;;;;;;;;5048787;28;20563;-61
2023/08/13 03:59:22;;;;;;;20.90;5.33;;;;;;;;;;5049219;28;20392;-62
2023/08/13 04:01:48;;;;;;;16.70;4.40;;;;;;;;;;5067670;28;20056;-62
2023/08/13 04:04:14;;;;;;;22.83;5.57;;;;;;;;;;5068770;28;20044;-62
2023/08/13 04:06:42;;;;;;;20.33;6.17;;;;;;;;;;5067956;28;20075;-62
2023/08/13 04:09:08;;;;;;;18.03;6.00;;;;;;;;;;5068627;28;20123;-62
2023/08/13 04:11:34;;;;;;;20.60;5.17;;;;;;;;;;5068573;28;20604;-61
2023/08/13 04:14:00;;;;;;;18.10;5.00;;;;;;;;;;5068404;28;20040;-61
2023/08/13 04:16:27;;;;;;;17.90;4.90;;;;;;;;;;5060236;28;20048;-62
2023/08/13 04:18:53;;;;;;;20.60;5.80;;;;;;;;;;5046577;28;20086;-62
2023/08/13 04:21:19;;;;;;;13.93;4.80;;;;;;;;;;5048147;28;20076;-62
2023/08/13 04:23:45;;;;;;;18.83;5.17;;;;;;;;;;5048771;28;20471;-62
2023/08/13 04:26:11;;;;;;;15.60;4.47;;;;;;;;;;5048561;28;20051;-62
2023/08/13 04:28:37;;;;;;;14.10;4.87;;;;;;;;;;5048566;28;20398;-62
2023/08/13 04:31:03;;;;;;;18.80;5.20;;;;;;;;;;5047679;28;20041;-62
2023/08/13 04:33:29;;;;;;;15.33;4.90;;;;;;;;;;5048760;28;20123;-62
2023/08/13 04:35:55;;;;;;;13.80;5.67;;;;;;;;;;5047973;28;20560;-62
2023/08/13 04:38:21;;;;;;;17.07;4.50;;;;;;;;;;5051119;28;20061;-62
2023/08/13 04:40:48;;;;;;;20.47;5.47;;;;;;;;;;5052498;28;20055;-62
2023/08/13 04:43:14;;;;;;;22.57;5.00;;;;;;;;;;5051877;28;20156;-62
2023/08/13 04:45:40;;;;;;;15.03;4.47;;;;;;;;;;5052165;28;20053;-62
2023/08/13 04:48:06;;;;;;;13.17;4.97;;;;;;;;;;5052259;28;20098;-62
2023/08/13 04:50:33;;;;;;;16.17;4.67;;;;;;;;;;5052420;28;20114;-62
2023/08/13 04:52:59;;;;;;;15.87;5.03;;;;;;;;;;5051656;28;20741;-62
2023/08/13 04:55:25;;;;;;;14.73;4.57;;;;;;;;;;5051373;28;20048;-62
2023/08/13 04:57:51;;;;;;;15.20;4.73;;;;;;;;;;5051949;28;20118;-62
2023/08/13 05:00:17;;;;;;;19.13;6.37;;;;;;;;;;5058093;28;20045;-62
2023/08/13 05:02:43;;;;;;;16.93;5.67;;;;;;;;;;5071833;28;20049;-62
2023/08/13 05:05:09;;;;;;;14.63;4.73;;;;;;;;;;5071940;28;20106;-62
2023/08/13 05:07:35;;;;;;;17.97;5.40;;;;;;;;;;5060907;28;20045;-62
2023/08/13 05:10:01;;;;;;;16.87;4.53;;;;;;;;;;5051723;28;20088;-62
2023/08/13 05:12:27;;;;;;;13.93;5.80;;;;;;;;;;5051813;28;20049;-62
2023/08/13 05:14:53;;;;;;;21.93;5.60;;;;;;;;;;5051580;28;20059;-62
2023/08/13 05:17:20;;;;;;;18.70;5.70;;;;;;;;;;5051644;28;20040;-62
2023/08/13 05:19:46;;;;;;;12.33;4.83;;;;;;;;;;5051171;28;20041;-62
2023/08/13 05:22:12;;;;;;;15.70;4.90;;;;;;;;;;5051254;28;20094;-62
2023/08/13 05:24:38;;;;;;;20.37;5.57;;;;;;;;;;5051925;28;20049;-62
2023/08/13 05:27:04;;;;;;;21.53;5.23;;;;;;;;;;5051459;28;20041;-62
2023/08/13 05:29:30;;;;;;;16.93;4.77;;;;;;;;;;5062379;28;20526;-62
2023/08/13 05:31:56;;;;;;;17.83;5.30;;;;;;;;;;5070766;28;20048;-62
2023/08/13 05:34:22;;;;;;;16.50;4.47;;;;;;;;;;5071060;28;20094;-62
2023/08/13 05:36:49;;;;;;;16.17;4.93;;;;;;;;;;5071249;28;20045;-62
2023/08/13 05:39:15;;;;;;;13.13;4.87;;;;;;;;;;5070968;28;20049;-62
2023/08/13 05:41:41;;;;;;;19.67;5.70;;;;;;;;;;5060632;28;20056;-62
2023/08/13 05:44:07;;;;;;;19.30;4.87;;;;;;;;;;5067163;28;20465;-62
2023/08/13 05:46:33;;;;;;;14.23;4.97;;;;;;;;;;5070413;28;20585;-62
2023/08/13 05:48:59;;;;;;;20.67;5.50;;;;;;;;;;5070662;28;20040;-62
2023/08/13 05:51:25;;;;;;;14.23;5.20;;;;;;;;;;5070827;28;20440;-62
2023/08/13 05:53:51;;;;;;;17.30;5.30;;;;;;;;;;5070786;28;20036;-62
2023/08/13 05:56:17;;;;;;;16.97;5.23;;;;;;;;;;5070950;28;20098;-62
2023/08/13 05:58:43;;;;;;;12.87;4.53;;;;;;;;;;5059355;28;20076;-62
2023/08/13 06:01:11;;;;;;;10.77;4.97;;;;;;;;;;5064385;28;20091;-62
2023/08/13 06:03:36;;;;;;;18.33;5.10;;;;;;;;;;5070914;28;20180;-62
2023/08/13 06:06:03;;;;;;;13.43;5.10;;;;;;;;;;5070677;28;20106;-62
2023/08/13 06:08:29;;;;;;;15.13;5.40;;;;;;;;;;5070100;28;20091;-62
2023/08/13 06:10:55;;;;;;;16.23;5.23;;;;;;;;;;5070780;28;20586;-62
2023/08/13 06:13:21;;;;;;;13.70;5.03;;;;;;;;;;5070509;28;20127;-62
2023/08/13 06:15:47;;;;;;;13.27;5.27;;;;;;;;;;5059346;28;20140;-62
2023/08/13 06:18:13;;;;;;;16.77;4.90;;;;;;;;;;5065494;28;20048;-62
2023/08/13 06:20:39;;;;;;;20.03;6.17;;;;;;;;;;5069883;28;20051;-62
2023/08/13 06:23:05;;;;;;;18.17;4.77;;;;;;;;;;5070233;28;20040;-62
2023/08/13 06:25:30;;;;;;;21.63;5.13;;;;;;;;;;5070267;28;20430;-62
2023/08/13 06:27:56;;;;;;;19.53;4.80;;;;;;;;;;5070341;28;20128;-62
2023/08/13 06:30:24;;;;;;;17.23;4.93;;;;;;;;;;5069990;28;20040;-62
2023/08/13 06:32:50;;;;;;;15.60;5.30;;;;;;;;;;5058216;28;20368;-62
2023/08/13 06:35:16;;;;;;;20.07;5.70;;;;;;;;;;5050017;28;20045;-62
2023/08/13 06:37:42;;;;;;;14.57;4.20;;;;;;;;;;5049840;28;20045;-62
2023/08/13 06:40:08;;;;;;;14.13;4.87;;;;;;;;;;5050199;28;20048;-62
2023/08/13 06:42:34;;;;;;;16.97;4.53;;;;;;;;;;5050365;28;20505;-62
2023/08/13 06:45:00;;;;;;;14.47;4.07;;;;;;;;;;5049456;28;20049;-62
2023/08/13 06:47:26;;;;;;;15.93;4.57;;;;;;;;;;5049755;28;20041;-62
2023/08/13 06:49:52;;;;;;;14.50;4.63;;;;;;;;;;5050360;28;20037;-62
2023/08/13 06:52:18;;;;;;;16.13;5.07;;;;;;;;;;5050024;28;20106;-62
2023/08/13 06:54:44;;;;;;;14.17;3.80;;;;;;;;;;5049104;28;20494;-62
2023/08/13 06:57:10;;;;;;;12.70;3.60;;;;;;;;;;5049939;28;20037;-62
2023/08/13 06:59:36;;;;;;;13.97;3.40;;;;;;;;;;5050058;28;20041;-62
2023/08/13 07:02:04;;;;;;;18.63;5.43;;;;;;;;;;5070180;28;20483;-62
2023/08/13 07:04:30;;;;;;;17.63;4.23;;;;;;;;;;5069306;28;20055;-62
2023/08/13 07:06:57;;;;;;;15.90;4.40;;;;;;;;;;5056883;28;20448;-62
2023/08/13 07:09:24;;;;;;;13.73;3.60;;;;;;;;;;5048667;28;20052;-62
2023/08/13 07:11:50;;;;;;;12.87;3.50;;;;;;;;;;5049251;28;20100;-62
2023/08/13 07:14:17;;;;;;;14.83;4.43;;;;;;;;;;5049475;28;20419;-62
2023/08/13 07:16:43;;;;;;;9.43;4.20;;;;;;;;;;5048989;28;20052;-62
2023/08/13 07:19:09;;;;;;;15.70;3.77;;;;;;;;;;5048869;28;20071;-62
2023/08/13 07:21:36;;;;;;;16.63;4.07;;;;;;;;;;5049291;28;20126;-62
2023/08/13 07:24:04;;;;;;;16.40;4.37;;;;;;;;;;5049730;28;20533;-62
2023/08/13 07:26:30;;;;;;;10.70;3.23;;;;;;;;;;5049205;28;20512;-62
2023/08/13 07:28:56;;;;;;;17.10;4.27;;;;;;;;;;5049276;28;20045;-62
2023/08/13 07:31:22;;;;;;;19.17;4.23;;;;;;;;;;5048258;28;20041;-62
2023/08/13 07:33:49;;;;;;;17.87;3.93;;;;;;;;;;5048894;28;20041;-62
2023/08/13 07:36:15;;;;;;;13.13;4.13;;;;;;;;;;5048786;28;20089;-62
2023/08/13 07:38:42;;;;;;;15.77;3.33;;;;;;;;;;5048437;28;21150;-62
2023/08/13 07:41:08;;;;;;;9.90;4.23;;;;;;;;;;5049221;28;20088;-62
2023/08/13 07:43:34;;;;;;;12.93;3.60;;;;;;;;;;5048461;28;20083;-62
2023/08/13 07:46:00;;;;;;;13.13;4.07;;;;;;;;;;5048633;28;20068;-62
2023/08/13 07:48:26;;;;;;;15.57;4.50;;;;;;;;;;5048480;28;20041;-63
2023/08/13 07:50:52;;;;;;;10.17;3.53;;;;;;;;;;5048786;28;20044;-62
2023/08/13 07:53:18;;;;;;;11.17;3.77;;;;;;;;;;5047895;28;20187;-63
2023/08/13 07:55:46;;;;;;;12.93;3.50;;;;;;;;;;5048488;28;20680;-63
2023/08/13 07:58:14;;;;;;;15.37;3.37;;;;;;;;;;5049178;28;20106;-63
2023/08/13 08:00:40;;;;;;;10.10;3.53;;;;;;;;;;5057676;28;20061;-63
2023/08/13 08:03:06;;;;;;;11.53;3.73;;;;;;;;;;5068173;28;20048;-63
2023/08/13 08:05:32;;;;;;;9.33;4.00;;;;;;;;;;5068380;28;20102;-63
2023/08/13 08:08:00;;;;;;;14.67;3.77;;;;;;;;;;5068712;28;20037;-63
2023/08/13 08:10:26;;;;;;;9.40;3.30;;;;;;;;;;5068844;28;20072;-63
2023/08/13 08:12:52;;;;;;;12.17;3.13;;;;;;;;;;5068648;28;20161;-63
2023/08/13 08:15:19;;;;;;;13.00;3.23;;;;;;;;;;5052656;28;20494;-63
2023/08/13 08:17:45;;;;;;;8.40;2.70;;;;;;;;;;5047771;28;20128;-62
2023/08/13 08:20:11;;;;;;;10.97;2.97;;;;;;;;;;5048250;28;20162;-62
2023/08/13 08:22:37;;;;;;;11.47;3.43;;;;;;;;;;5047969;28;20127;-62
2023/08/13 08:25:07;;;;;;;12.30;2.40;;;;;;;;;;5048314;28;20049;-62
2023/08/13 08:27:33;;;;;;;8.60;1.67;;;;;;;;;;5048083;28;20049;-62
2023/08/13 08:29:59;;;;;;;7.93;2.33;;;;;;;;;;5048209;28;20060;-63
2023/08/13 08:32:24;;;;;;;6.23;2.10;;;;;;;;;;5048062;28;20049;-62
2023/08/13 08:34:50;;;;;;;9.33;2.57;;;;;;;;;;5048137;28;20178;-62
2023/08/13 08:37:16;;;;;;;13.40;3.50;;;;;;;;;;5048072;28;20037;-62
2023/08/13 08:39:42;;;;;;;6.60;2.00;;;;;;;;;;5048121;28;20098;-62
2023/08/13 08:42:11;;;;;;;8.17;1.53;;;;;;;;;;5047479;28;20052;-62
2023/08/13 08:44:39;;;;;;;8.60;2.53;;;;;;;;;;5047780;28;20569;-62
2023/08/13 08:47:06;;;;;;;6.53;2.10;;;;;;;;;;5048155;28;20049;-63
2023/08/13 08:49:33;;;;;;;10.27;2.00;;;;;;;;;;5048403;28;20049;-62
2023/08/13 08:51:59;;;;;;;13.23;2.60;;;;;;;;;;5048227;28;20041;-62
2023/08/13 08:54:25;;;;;;;7.80;2.50;;;;;;;;;;5047297;28;20068;-63
2023/08/13 08:56:51;;;;;;;8.13;2.20;;;;;;;;;;5047931;28;20041;-63
2023/08/13 08:59:17;;;;;;;10.17;2.60;;;;;;;;;;5047954;28;20453;-63
2023/08/13 09:01:43;;;;;;;8.17;2.50;;;;;;;;;;5066160;28;20135;-60
2023/08/13 09:04:09;;;;;;;10.97;2.37;;;;;;;;;;5067866;28;20040;-61
2023/08/13 09:06:54;;;;;;;9.70;2.33;;;;;;;;;;5049161;28;20115;-62
2023/08/13 09:09:20;;;;;;;9.00;2.50;;;;;;;;;;5047745;28;20037;-61
2023/08/13 09:11:46;;;;;;;6.10;1.67;;;;;;;;;;5047814;28;20053;-61
2023/08/13 09:14:12;;;;;;;7.13;1.87;;;;;;;;;;5047651;28;20371;-61
2023/08/13 09:16:43;;;;;;;6.97;1.70;;;;;;;;;;5047642;28;20041;-61
2023/08/13 09:19:09;;;;;;;6.43;1.80;;;;;;;;;;5047598;28;20033;-61
2023/08/13 09:21:35;;;;;;;8.53;2.43;;;;;;;;;;5047572;28;20056;-62
2023/08/13 09:24:01;;;;;;;9.70;2.50;;;;;;;;;;5050121;28;20041;-61
2023/08/13 09:26:28;;;;;;;10.90;2.43;;;;;;;;;;5051592;28;20048;-62
2023/08/13 09:28:54;;;;;;;6.13;1.63;;;;;;;;;;5051317;28;20088;-61
2023/08/13 09:31:24;;;;;;;6.90;1.70;;;;;;;;;;5051045;28;20138;-61
2023/08/13 09:33:52;;;;;;;6.72;1.58;;;;;;;;;;5052015;28;20414;-61
2023/08/13 09:36:18;;;;;;;7.97;2.08;;;;;;;;;;5051782;28;20041;-62
2023/08/13 09:38:44;;;;;;;8.02;1.70;;;;;;;;;;5052211;28;20407;-62
2023/08/13 09:41:13;;;;;;;11.48;2.35;;;;;;;;;;5051852;28;20454;-62
2023/08/13 09:43:40;;;;;;;6.45;2.00;;;;;;;;;;5051522;28;20051;-62
2023/08/13 09:46:07;;;;;;;6.82;1.63;;;;;;;;;;5051567;28;20427;-62
2023/08/13 09:48:33;;;;;;;7.03;1.40;;;;;;;;;;5051277;28;20148;-62
2023/08/13 09:51:02;;;;;;;6.95;1.67;;;;;;;;;;5051746;28;20450;-62
2023/08/13 09:53:30;;;;;;;6.68;1.52;;;;;;;;;;5051431;28;20057;-62
2023/08/13 09:55:58;;;;;;;5.15;1.40;;;;;;;;;;5052122;28;20080;-62
2023/08/13 09:58:25;;;;;;;5.70;1.48;;;;;;;;;;5051048;28;20059;-61
2023/08/13 10:00:51;;;;;;;4.07;1.40;;;;;;;;;;5062502;28;20056;-61
2023/08/13 10:03:18;;;;;;;6.72;1.50;;;;;;;;;;5072373;28;20090;-62
2023/08/13 10:05:45;;;;;;;5.07;1.35;;;;;;;;;;5070910;28;20040;-61
2023/08/13 10:08:11;;;;;;;5.43;1.67;;;;;;;;;;5070869;28;20529;-62
2023/08/13 10:10:37;;;;;;;7.00;1.33;;;;;;;;;;5071079;28;20068;-62
2023/08/13 10:13:04;;;;;;;5.43;1.70;;;;;;;;;;5065770;28;20514;-62
2023/08/13 10:15:31;;;;;;;5.88;1.67;;;;;;;;;;5051075;28;20075;-62
2023/08/13 10:17:58;;;;;;;5.97;1.70;;;;;;;;;;5051087;28;20080;-62
2023/08/13 10:20:25;;;;;;;7.32;2.22;;;;;;;;;;5050279;28;20040;-62
2023/08/13 10:22:53;;;;;;;6.68;1.92;;;;;;;;;;5051033;28;20037;-61
2023/08/13 10:25:45;;;;;;;3.83;1.40;;;;;;;;;;5050971;28;20099;-62
2023/08/13 10:28:21;;;;;;;4.88;1.60;;;;;;;;;;5050418;28;20045;-62
2023/08/13 10:30:47;;;;;;;3.67;1.17;;;;;;;;;;5051315;28;20124;-62
2023/08/13 10:33:14;;;;;;;4.77;1.30;;;;;;;;;;5049926;28;20045;-62
2023/08/13 10:35:40;;;;;;;3.87;1.67;;;;;;;;;;5049034;28;20083;-62
2023/08/13 10:38:10;;;;;;;5.07;1.30;;;;;;;;;;5050243;28;20053;-62
2023/08/13 10:40:36;;;;;;;5.10;1.90;;;;;;;;;;5049756;28;20805;-62
2023/08/13 10:43:04;;;;;;;4.60;1.13;;;;;;;;;;5049989;28;20507;-62
2023/08/13 10:45:36;;;;;;;3.63;1.17;;;;;;;;;;5049462;28;20052;-62
2023/08/13 10:48:03;;;;;;;5.40;1.20;;;;;;;;;;5056621;28;20045;-62
2023/08/13 10:50:39;;;;;;;2.95;0.88;;;;;;;;;;5069652;28;20045;-62
2023/08/13 10:53:09;;;;;;;5.28;1.58;;;;;;;;;;5069007;28;20127;-62
2023/08/13 10:55:48;;;;;;;3.67;1.35;;;;;;;;;;5069660;28;20055;-62
2023/08/13 10:58:25;;;;;;;5.22;1.65;;;;;;;;;;5069543;28;20040;-61
2023/08/13 11:00:51;;;;;;;4.72;1.27;;;;;;;;;;5069455;28;20084;-62
2023/08/13 11:03:19;;;;;;;6.18;1.42;;;;;;;;;;5069342;28;20049;-62
2023/08/13 11:05:45;;;;;;;4.53;1.60;;;;;;;;;;5049338;28;20049;-62
2023/08/13 11:08:15;;;;;;;6.80;1.10;;;;;;;;;;5049580;28;20045;-62
2023/08/13 11:10:42;;;;;;;7.05;1.70;;;;;;;;;;5049246;28;20462;-61
2023/08/13 11:13:09;;;;;;;8.35;1.50;;;;;;;;;;5049563;28;20041;-61
2023/08/13 11:15:35;;;;;;;4.93;1.48;;;;;;;;;;5049258;28;20617;-62
2023/08/13 11:18:01;;;;;;;6.53;1.63;;;;;;;;;;5049278;28;20135;-62
2023/08/13 11:20:27;;;;;;;7.72;1.70;;;;;;;;;;5048844;28;20052;-61
2023/08/13 11:22:53;;;;;;;5.97;1.90;;;;;;;;;;5049725;28;20048;-62
2023/08/13 11:25:19;;;;;;;6.82;1.38;;;;;;;;;;5049088;28;20053;-62
2023/08/13 11:27:45;;;;;;;8.40;1.90;;;;;;;;;;5049197;28;20052;-61
2023/08/13 11:30:11;;;;;;;8.82;2.30;;;;;;;;;;5048730;28;20415;-61
2023/08/13 11:32:38;;;;;;;5.82;2.20;;;;;;;;;;5048710;28;20134;-61
2023/08/13 11:35:05;;;;;;;6.57;2.15;;;;;;;;;;5048500;28;20060;-61
2023/08/13 11:37:31;;;;;;;5.85;1.55;;;;;;;;;;5049499;28;20049;-61
2023/08/13 11:39:57;;;;;;;8.75;2.05;;;;;;;;;;5048489;28;20406;-62
2023/08/13 11:42:23;;;;;;;8.07;1.70;;;;;;;;;;5048574;28;20056;-62
2023/08/13 11:44:49;;;;;;;6.67;2.17;;;;;;;;;;5049018;28;20426;-62
2023/08/13 11:47:24;;;;;;;8.17;2.00;;;;;;;;;;5048472;28;20072;-62
2023/08/13 11:49:49;;;;;;;6.60;1.93;;;;;;;;;;5048959;28;20067;-62
2023/08/13 11:52:18;;;;;;;10.87;1.90;;;;;;;;;;5048091;28;20114;-62
2023/08/13 11:54:45;;;;;;;10.67;2.20;;;;;;;;;;5049104;28;20060;-62
2023/08/13 11:57:11;;;;;;;8.50;2.30;;;;;;;;;;5048820;28;20049;-62
2023/08/13 11:59:37;;;;;;;12.67;2.47;;;;;;;;;;5049350;28;20553;-62
2023/08/13 12:02:03;;;;;;;12.40;2.40;;;;;;;;;;5068394;28;20411;-61
2023/08/13 12:04:32;;;;;;;10.83;2.63;;;;;;;;;;5068048;28;20055;-62
2023/08/13 12:06:58;;;;;;;11.03;2.30;;;;;;;;;;5068731;28;20040;-62
2023/08/13 12:09:24;;;;;;;7.77;2.33;;;;;;;;;;5068388;28;20143;-62
2023/08/13 12:11:53;;;;;;;9.17;2.40;;;;;;;;;;5064539;28;20049;-62
2023/08/13 12:14:19;;;;;;;7.27;2.30;;;;;;;;;;5048439;28;20120;-62
2023/08/13 12:16:45;;;;;;;7.00;2.07;;;;;;;;;;5048205;28;20139;-62
2023/08/13 12:19:11;;;;;;;8.77;2.00;;;;;;;;;;5048247;28;20053;-62
2023/08/13 12:21:38;;;;;;;8.27;1.97;;;;;;;;;;5047424;28;20033;-62
2023/08/13 12:24:04;;;;;;;9.80;2.43;;;;;;;;;;5048239;28;20045;-62
2023/08/13 12:26:31;;;;;;;10.27;2.20;;;;;;;;;;5048001;28;20151;-62
2023/08/13 12:28:57;;;;;;;5.85;2.20;;;;;;;;;;5048425;28;20087;-62
2023/08/13 12:31:25;;;;;;;9.25;2.30;;;;;;;;;;5047947;28;20063;-62
2023/08/13 12:33:51;;;;;;;10.23;1.98;;;;;;;;;;5047803;28;20132;-62
2023/08/13 12:36:17;;;;;;;8.70;2.53;;;;;;;;;;5047808;28;20048;-62
2023/08/13 12:38:42;;;;;;;12.88;2.67;;;;;;;;;;5047958;28;20033;-62
2023/08/13 12:41:09;;;;;;;8.40;2.33;;;;;;;;;;5048075;28;20071;-62
2023/08/13 12:43:36;;;;;;;8.00;2.35;;;;;;;;;;5047731;28;20053;-62
2023/08/13 12:46:03;;;;;;;11.85;2.83;;;;;;;;;;5048644;28;20060;-62
2023/08/13 12:48:29;;;;;;;7.40;2.30;;;;;;;;;;5047990;28;20106;-62
2023/08/13 12:50:55;;;;;;;10.73;2.95;;;;;;;;;;5053584;28;20048;-62
2023/08/13 12:53:21;;;;;;;13.10;3.35;;;;;;;;;;5066873;28;20064;-62
2023/08/13 12:55:47;;;;;;;9.07;2.28;;;;;;;;;;5066161;28;20036;-62
2023/08/13 12:58:13;;;;;;;6.70;2.25;;;;;;;;;;5068347;28;20490;-62
2023/08/13 13:00:40;;;;;;;7.00;2.22;;;;;;;;;;5061388;28;20061;-62
2023/08/13 13:03:06;;;;;;;10.02;2.65;;;;;;;;;;5060382;28;20068;-62
2023/08/13 13:05:32;;;;;;;9.70;2.60;;;;;;;;;;5051160;28;20396;-62
2023/08/13 13:07:58;;;;;;;8.73;2.50;;;;;;;;;;5054616;28;20051;-62
2023/08/13 13:10:24;;;;;;;6.93;2.15;;;;;;;;;;5071095;28;20456;-62
2023/08/13 13:12:50;;;;;;;9.57;2.30;;;;;;;;;;5071059;28;20048;-62
2023/08/13 13:15:16;;;;;;;4.82;2.10;;;;;;;;;;5070958;28;20097;-62
2023/08/13 13:17:42;;;;;;;13.48;3.15;;;;;;;;;;5070912;28;20541;-62
2023/08/13 13:20:11;;;;;;;7.97;2.08;;;;;;;;;;5065501;28;20041;-62
2023/08/13 13:22:37;;;;;;;7.50;1.85;;;;;;;;;;5051758;28;20044;-62
2023/08/13 13:25:04;;;;;;;9.02;2.85;;;;;;;;;;5063096;28;20044;-62
2023/08/13 13:27:30;;;;;;;7.88;2.50;;;;;;;;;;5070494;28;20395;-62
2023/08/13 13:29:56;;;;;;;8.60;2.42;;;;;;;;;;5070304;28;20341;-62
2023/08/13 13:32:22;;;;;;;7.28;2.08;;;;;;;;;;5070824;28;20048;-62
2023/08/13 13:34:48;;;;;;;9.30;2.22;;;;;;;;;;5070472;28;20045;-62
2023/08/13 13:37:14;;;;;;;11.00;2.75;;;;;;;;;;5062477;28;20052;-62
2023/08/13 13:39:40;;;;;;;7.55;2.35;;;;;;;;;;5050855;28;20140;-62
2023/08/13 13:42:06;;;;;;;9.82;2.80;;;;;;;;;;5060800;28;20367;-62
2023/08/13 13:44:32;;;;;;;9.68;2.55;;;;;;;;;;5069796;28;20055;-62
2023/08/13 13:46:58;;;;;;;13.60;2.65;;;;;;;;;;5070488;28;20041;-62
2023/08/13 13:49:24;;;;;;;10.13;2.63;;;;;;;;;;5057904;28;20407;-62
2023/08/13 13:51:50;;;;;;;9.02;2.38;;;;;;;;;;5064080;28;20588;-62
2023/08/13 13:54:16;;;;;;;9.18;2.60;;;;;;;;;;5063772;28;20063;-62
2023/08/13 13:56:42;;;;;;;10.75;2.80;;;;;;;;;;5067931;28;20067;-62
2023/08/13 13:59:08;;;;;;;8.50;2.40;;;;;;;;;;5051349;28;20088;-62
2023/08/13 14:01:34;;;;;;;11.60;3.30;;;;;;;;;;5049974;28;20099;-62
2023/08/13 14:04:00;;;;;;;9.55;2.72;;;;;;;;;;5050363;28;20056;-62
2023/08/13 14:06:26;;;;;;;7.43;2.50;;;;;;;;;;5067658;28;20191;-62
2023/08/13 14:08:52;;;;;;;8.63;2.20;;;;;;;;;;5069232;28;20056;-62
2023/08/13 14:11:17;;;;;;;8.88;2.83;;;;;;;;;;5069402;28;20079;-62
2023/08/13 14:13:43;;;;;;;6.63;2.13;;;;;;;;;;5069792;28;20521;-62
2023/08/13 14:16:09;;;;;;;9.63;2.15;;;;;;;;;;5068943;28;20083;-62
2023/08/13 14:18:35;;;;;;;7.30;2.30;;;;;;;;;;5069696;28;20134;-62
2023/08/13 14:21:01;;;;;;;13.55;3.00;;;;;;;;;;5069194;28;20478;-62
2023/08/13 14:23:28;;;;;;;10.00;2.10;;;;;;;;;;5069269;28;20418;-62
2023/08/13 14:25:54;;;;;;;8.23;3.08;;;;;;;;;;5069001;28;20131;-62
2023/08/13 14:28:20;;;;;;;7.50;2.38;;;;;;;;;;5069504;28;20135;-62
2023/08/13 14:30:45;;;;;;;13.17;2.67;;;;;;;;;;5069386;28;20047;-62